Station Historical Data
Daily Summary for August 8, 2017 Units:  English    Metric   Both
« Previous Day
Next Day »
Daily Weekly Monthly Yearly Custom
  High: Low: Average:
Temperature: 77.3 °F 56.3 °F 67.1 °F
Dew Point: 63.2 °F 47.8 °F 57.7 °F
Humidity: 94% 37% 74%
Wind Speed: 16.0mph 0.0mph 3mph
Wind Gust: 17.0mph - -
Wind- - West
Pressure: 30.10 in 29.97 in -
Precipitation: 0.00 in    
Historical Graphs
 
 
Tabular Data for August 8, 2017
Time Temperature Dew Point Pressure Wind Wind Speed Wind Gust Humidity Rainfall Rate (Hourly)
00:04 61.2 °F 57.9 °F 29.97 in Calm     89% 0.00 in
00:09 60.9 °F 57.6 °F 29.97 in Calm     89% 0.00 in
00:14 60.7 °F 57.4 °F 29.97 in Calm     89% 0.00 in
00:19 60.4 °F 57.5 °F 29.97 in Calm     90% 0.00 in
00:24 60.2 °F 57.3 °F 29.97 in Calm     90% 0.00 in
00:29 60.1 °F 57.2 °F 29.97 in Calm     90% 0.00 in
00:34 60.0 °F 57.1 °F 29.97 in Calm     90% 0.00 in
00:39 59.9 °F 57.0 °F 29.97 in Calm     90% 0.00 in
00:44 59.9 °F 57.3 °F 29.97 in Calm     91% 0.00 in
00:49 59.8 °F 56.9 °F 29.97 in Calm     90% 0.00 in
00:54 59.5 °F 56.6 °F 29.97 in Calm     90% 0.00 in
00:59 59.4 °F 56.8 °F 29.97 in Calm     91% 0.00 in
01:04 59.2 °F 56.6 °F 29.97 in Calm     91% 0.00 in
01:09 59.1 °F 56.5 °F 29.97 in Calm     91% 0.00 in
01:14 59.0 °F 56.4 °F 29.97 in Calm     91% 0.00 in
01:19 58.9 °F 56.3 °F 29.97 in Calm     91% 0.00 in
01:24 58.8 °F 56.2 °F 29.97 in Calm     91% 0.00 in
01:29 58.5 °F 55.9 °F 29.97 in Calm     91% 0.00 in
01:34 58.4 °F 55.8 °F 29.98 in Calm     91% 0.00 in
01:39 58.3 °F 55.7 °F 29.98 in Calm     91% 0.00 in
01:44 58.2 °F 55.6 °F 29.97 in Calm     91% 0.00 in
01:49 58.3 °F 55.7 °F 29.98 in Calm     91% 0.00 in
01:54 58.2 °F 55.9 °F 29.98 in Calm     92% 0.00 in
01:59 58.1 °F 55.8 °F 29.98 in Calm     92% 0.00 in
02:04 58.1 °F 55.8 °F 29.98 in Calm     92% 0.00 in
02:09 58.1 °F 55.8 °F 29.98 in Calm     92% 0.00 in
02:14 58.3 °F 56.0 °F 29.98 in Calm     92% 0.00 in
02:19 58.1 °F 55.8 °F 29.98 in Calm     92% 0.00 in
02:24 57.9 °F 55.6 °F 29.98 in Calm     92% 0.00 in
02:29 58.1 °F 55.8 °F 29.99 in Calm     92% 0.00 in
02:34 58.2 °F 55.9 °F 29.99 in Calm     92% 0.00 in
02:39 58.3 °F 56.0 °F 29.99 in Calm     92% 0.00 in
02:44 58.4 °F 56.1 °F 29.99 in Calm     92% 0.00 in
02:49 58.4 °F 56.1 °F 29.99 in Calm     92% 0.00 in
02:54 58.6 °F 56.6 °F 29.99 in Calm     93% 0.00 in
02:59 58.9 °F 56.9 °F 29.99 in Calm     93% 0.00 in
03:04 59.1 °F 57.1 °F 29.99 in Calm     93% 0.00 in
03:09 59.2 °F 57.2 °F 29.99 in Calm     93% 0.00 in
03:14 59.1 °F 57.1 °F 29.99 in Calm     93% 0.00 in
03:19 59.0 °F 56.7 °F 29.99 in Calm     92% 0.00 in
03:24 58.8 °F 56.5 °F 29.99 in Calm     92% 0.00 in
03:29 58.8 °F 56.8 °F 29.99 in Calm     93% 0.00 in
03:34 58.9 °F 56.9 °F 29.99 in Calm     93% 0.00 in
03:39 58.8 °F 56.8 °F 29.99 in Calm     93% 0.00 in
03:44 58.7 °F 56.4 °F 29.99 in Calm     92% 0.00 in
03:49 58.6 °F 56.6 °F 29.99 in Calm     93% 0.00 in
03:54 58.5 °F 56.5 °F 29.99 in Calm     93% 0.00 in
03:59 58.3 °F 56.3 °F 29.99 in Calm     93% 0.00 in
04:04 58.0 °F 55.7 °F 29.99 in Calm     92% 0.00 in
04:09 57.9 °F 55.9 °F 29.99 in Calm     93% 0.00 in
04:14 57.8 °F 55.8 °F 29.99 in Calm     93% 0.00 in
04:19 57.7 °F 55.7 °F 29.99 in Calm     93% 0.00 in
04:24 57.8 °F 55.8 °F 29.99 in Calm     93% 0.00 in
04:29 57.7 °F 55.7 °F 29.99 in Calm     93% 0.00 in
04:34 57.8 °F 55.8 °F 29.99 in Calm     93% 0.00 in
04:39 57.9 °F 55.9 °F 29.99 in Calm     93% 0.00 in
04:44 58.0 °F 56.0 °F 29.99 in Calm     93% 0.00 in
04:49 58.2 °F 56.2 °F 29.99 in Calm     93% 0.00 in
04:54 58.4 °F 56.4 °F 29.99 in Calm     93% 0.00 in
04:59 58.4 °F 56.4 °F 29.99 in Calm     93% 0.00 in
05:04 58.3 °F 56.3 °F 29.99 in Calm     93% 0.00 in
05:09 58.2 °F 56.2 °F 29.99 in Calm     93% 0.00 in
05:14 58.1 °F 56.1 °F 29.99 in Calm     93% 0.00 in
05:19 58.0 °F 56.0 °F 29.99 in Calm     93% 0.00 in
05:24 57.7 °F 55.7 °F 29.99 in Calm     93% 0.00 in
05:29 57.5 °F 55.5 °F 29.99 in Calm     93% 0.00 in
05:34 57.5 °F 55.5 °F 29.99 in Calm     93% 0.00 in
05:39 57.3 °F 55.3 °F 29.99 in Calm     93% 0.00 in
05:44 57.3 °F 55.3 °F 29.99 in Calm     93% 0.00 in
05:49 57.2 °F 55.2 °F 29.99 in Calm     93% 0.00 in
05:54 56.9 °F 54.9 °F 29.99 in Calm     93% 0.00 in
05:59 56.9 °F 54.9 °F 29.99 in Calm     93% 0.00 in
06:04 56.9 °F 54.9 °F 29.99 in Calm     93% 0.00 in
06:09 56.7 °F 54.7 °F 30.00 in Calm     93% 0.00 in
06:14 56.4 °F 54.4 °F 30.00 in Calm     93% 0.00 in
06:19 56.3 °F 54.3 °F 30.00 in Calm     93% 0.00 in
06:24 56.3 °F 54.3 °F 30.00 in Calm     93% 0.00 in
06:29 56.3 °F 54.3 °F 30.00 in Calm     93% 0.00 in
06:34 56.3 °F 54.3 °F 30.00 in Calm     93% 0.00 in
06:39 56.5 °F 54.8 °F 30.00 in Calm     94% 0.00 in
06:44 56.8 °F 55.1 °F 30.00 in Calm     94% 0.00 in
06:49 57.0 °F 55.3 °F 30.01 in Calm     94% 0.00 in
06:54 57.1 °F 55.4 °F 30.01 in Calm     94% 0.00 in
06:59 57.6 °F 55.9 °F 30.01 in Calm     94% 0.00 in
07:04 58.0 °F 56.3 °F 30.01 in Calm     94% 0.00 in
07:09 58.3 °F 56.6 °F 30.01 in Calm     94% 0.00 in
07:14 58.5 °F 56.8 °F 30.01 in Calm     94% 0.00 in
07:19 58.7 °F 57.0 °F 30.02 in Calm     94% 0.00 in
07:24 59.0 °F 57.3 °F 30.02 in Calm     94% 0.00 in
07:29 59.6 °F 57.9 °F 30.02 in Calm     94% 0.00 in
07:34 60.2 °F 58.5 °F 30.02 in Calm     94% 0.00 in
07:39 60.5 °F 58.8 °F 30.03 in Calm     94% 0.00 in
07:44 60.5 °F 58.8 °F 30.03 in Calm     94% 0.00 in
07:49 60.6 °F 58.6 °F 30.03 in Calm     93% 0.00 in
07:54 60.8 °F 58.8 °F 30.03 in Calm     93% 0.00 in
07:59 61.1 °F 59.1 °F 30.03 in Calm     93% 0.00 in
08:04 61.4 °F 59.4 °F 30.03 in Calm     93% 0.00 in
08:09 62.0 °F 60.0 °F 30.03 in Calm     93% 0.00 in
08:14 62.9 °F 60.8 °F 30.03 in Calm     93% 0.00 in
08:19 63.2 °F 60.5 °F 30.04 in WNW 1.0 mph 4.0 mph 91% 0.00 in
08:24 63.5 °F 60.8 °F 30.04 in Calm   4.0 mph 91% 0.00 in
08:29 64.0 °F 60.7 °F 30.04 in Calm   4.0 mph 89% 0.00 in
08:34 64.1 °F 60.5 °F 30.03 in Calm   7.0 mph 88% 0.00 in
08:39 64.5 °F 60.2 °F 30.04 in NW 5.0 mph 6.0 mph 86% 0.00 in
08:44 65.1 °F 60.5 °F 30.03 in NNW 3.0 mph 8.0 mph 85% 0.00 in
08:49 65.8 °F 60.5 °F 30.04 in WNW 3.0 mph 5.0 mph 83% 0.00 in
08:54 66.5 °F 60.8 °F 30.04 in NW 3.0 mph 6.0 mph 82% 0.00 in
08:59 66.5 °F 60.1 °F 30.04 in NW 3.0 mph 8.0 mph 80% 0.00 in
09:04 66.4 °F 59.7 °F 30.04 in NNW 3.0 mph 8.0 mph 79% 0.00 in
09:09 66.5 °F 60.1 °F 30.04 in NNW 3.0 mph 7.0 mph 80% 0.00 in
09:14 67.7 °F 60.6 °F 30.04 in NNW 2.0 mph 7.0 mph 78% 0.00 in
09:19 68.4 °F 60.5 °F 30.04 in NNW 2.0 mph 6.0 mph 76% 0.00 in
09:24 68.7 °F 60.1 °F 30.04 in NW 3.0 mph 6.0 mph 74% 0.00 in
09:29 68.2 °F 58.8 °F 30.05 in NNW 3.0 mph 8.0 mph 72% 0.00 in
09:34 68.2 °F 58.0 °F 30.05 in NNE 4.0 mph 8.0 mph 70% 0.00 in
09:39 68.6 °F 58.8 °F 30.05 in North 4.0 mph 7.0 mph 71% 0.00 in
09:44 69.2 °F 59.8 °F 30.05 in ESE 3.0 mph 5.0 mph 72% 0.00 in
09:49 69.8 °F 59.6 °F 30.05 in NW 1.0 mph 6.0 mph 70% 0.00 in
09:54 69.3 °F 59.1 °F 30.05 in NW 3.0 mph 9.0 mph 70% 0.00 in
09:59 68.3 °F 57.3 °F 30.05 in WNW 4.0 mph 9.0 mph 68% 0.00 in
10:04 68.6 °F 58.4 °F 30.05 in NW 4.0 mph 7.0 mph 70% 0.00 in
10:09 69.9 °F 60.8 °F 30.05 in NNW 1.0 mph 8.0 mph 73% 0.00 in
10:14 70.3 °F 58.4 °F 30.05 in North 2.0 mph 5.0 mph 66% 0.00 in
10:19 70.8 °F 58.9 °F 30.05 in NW 2.0 mph 7.0 mph 66% 0.00 in
10:24 70.5 °F 58.2 °F 30.05 in NNW 3.0 mph 10.0 mph 65% 0.00 in
10:29 70.8 °F 58.4 °F 30.05 in NNW 4.0 mph 10.0 mph 65% 0.00 in
10:34 70.9 °F 58.5 °F 30.05 in NW 4.0 mph 10.0 mph 65% 0.00 in
10:39 71.4 °F 57.7 °F 30.05 in NW 3.0 mph 8.0 mph 62% 0.00 in
10:44 71.3 °F 58.1 °F 30.05 in NNW 3.0 mph 9.0 mph 63% 0.00 in
10:49 72.2 °F 58.0 °F 30.05 in WNW 2.0 mph 8.0 mph 61% 0.00 in
10:54 72.7 °F 58.0 °F 30.05 in WNW 4.0 mph 7.0 mph 60% 0.00 in
10:59 71.4 °F 56.3 °F 30.05 in NW 3.0 mph 8.0 mph 59% 0.00 in
11:04 72.0 °F 56.9 °F 30.05 in NW 4.0 mph 8.0 mph 59% 0.00 in
11:09 71.9 °F 54.9 °F 30.05 in WNW 4.0 mph 10.0 mph 55% 0.00 in
11:14 71.4 °F 56.3 °F 30.05 in WNW 7.0 mph 10.0 mph 59% 0.00 in
11:19 72.1 °F 55.0 °F 30.05 in WNW 4.0 mph 10.0 mph 55% 0.00 in
11:24 72.2 °F 57.5 °F 30.06 in Calm   7.0 mph 60% 0.00 in
11:29 72.8 °F 56.2 °F 30.06 in NNW 6.0 mph 9.0 mph 56% 0.00 in
11:34 72.0 °F 55.4 °F 30.06 in NNW 4.0 mph 9.0 mph 56% 0.00 in
11:39 72.7 °F 56.6 °F 30.06 in NNW 4.0 mph 9.0 mph 57% 0.00 in
11:44 71.9 °F 54.9 °F 30.05 in NNW 4.0 mph 13.0 mph 55% 0.00 in
11:49 72.3 °F 54.7 °F 30.06 in WNW 3.0 mph 8.0 mph 54% 0.00 in
11:54 72.4 °F 55.3 °F 30.06 in NW 3.0 mph 7.0 mph 55% 0.00 in
11:59 72.0 °F 55.4 °F 30.06 in Calm   8.0 mph 56% 0.00 in
12:04 71.2 °F 54.2 °F 30.06 in NW 3.0 mph 8.0 mph 55% 0.00 in
12:09 72.6 °F 55.0 °F 30.06 in NW 4.0 mph 8.0 mph 54% 0.00 in
12:14 73.2 °F 54.0 °F 30.06 in NW 4.0 mph 9.0 mph 51% 0.00 in
12:19 73.1 °F 53.9 °F 30.06 in North 1.0 mph 8.0 mph 51% 0.00 in
12:24 74.1 °F 55.3 °F 30.06 in NW 3.0 mph 13.0 mph 52% 0.00 in
12:29 73.7 °F 52.8 °F 30.06 in West 5.0 mph 10.0 mph 48% 0.00 in
12:34 74.3 °F 53.3 °F 30.06 in WNW 4.0 mph 10.0 mph 48% 0.00 in
12:39 74.2 °F 56.0 °F 30.06 in WNW 4.0 mph 9.0 mph 53% 0.00 in
12:44 73.4 °F 53.6 °F 30.06 in NNW 3.0 mph 9.0 mph 50% 0.00 in
12:49 73.7 °F 55.0 °F 30.06 in NNW 3.0 mph 9.0 mph 52% 0.00 in
12:54 72.6 °F 53.4 °F 30.06 in NNW 3.0 mph 8.0 mph 51% 0.00 in
12:59 73.7 °F 54.4 °F 30.06 in NW 4.0 mph 10.0 mph 51% 0.00 in
13:04 74.2 °F 56.0 °F 30.06 in West 5.0 mph 7.0 mph 53% 0.00 in
13:09 74.7 °F 53.7 °F 30.06 in NNW 4.0 mph 11.0 mph 48% 0.00 in
13:14 74.6 °F 54.2 °F 30.06 in West 4.0 mph 9.0 mph 49% 0.00 in
13:19 75.0 °F 54.5 °F 30.06 in NW 5.0 mph 8.0 mph 49% 0.00 in
13:24 75.2 °F 53.0 °F 30.06 in WNW 4.0 mph 10.0 mph 46% 0.00 in
13:29 75.5 °F 53.3 °F 30.06 in WNW 4.0 mph 7.0 mph 46% 0.00 in
13:34 76.0 °F 52.5 °F 30.06 in WNW 3.0 mph 10.0 mph 44% 0.00 in
13:39 75.1 °F 53.5 °F 30.06 in WNW 4.0 mph 11.0 mph 47% 0.00 in
13:44 75.1 °F 52.3 °F 30.06 in NW 5.0 mph 11.0 mph 45% 0.00 in
13:49 75.4 °F 48.7 °F 30.06 in WNW 6.0 mph 14.0 mph 39% 0.00 in
13:54 75.4 °F 50.7 °F 30.06 in WNW 6.0 mph 14.0 mph 42% 0.00 in
13:59 75.2 °F 49.2 °F 30.06 in West 5.0 mph 13.0 mph 40% 0.00 in
14:04 75.7 °F 50.3 °F 30.06 in West 5.0 mph 13.0 mph 41% 0.00 in
14:09 75.9 °F 49.2 °F 30.07 in West 8.0 mph 12.0 mph 39% 0.00 in
14:14 75.9 °F 51.8 °F 30.07 in NW 2.0 mph 10.0 mph 43% 0.00 in
14:19 76.2 °F 50.8 °F 30.07 in NW 6.0 mph 14.0 mph 41% 0.00 in
14:24 76.1 °F 50.7 °F 30.07 in Calm   13.0 mph 41% 0.00 in
14:29 76.0 °F 47.8 °F 30.07 in NNW 5.0 mph 12.0 mph 37% 0.00 in
14:34 75.6 °F 49.6 °F 30.06 in NE 6.0 mph 12.0 mph 40% 0.00 in
14:39 76.0 °F 51.2 °F 30.06 in NNW 5.0 mph 12.0 mph 42% 0.00 in
14:44 77.2 °F 51.0 °F 30.07 in NW 4.0 mph 12.0 mph 40% 0.00 in
14:49 76.9 °F 49.4 °F 30.06 in WNW 5.0 mph 12.0 mph 38% 0.00 in
14:54 76.6 °F 48.4 °F 30.06 in WNW 6.0 mph 12.0 mph 37% 0.00 in
14:59 77.1 °F 52.2 °F 30.06 in WNW 6.0 mph 11.0 mph 42% 0.00 in
15:04 77.0 °F 52.1 °F 30.06 in NNW 1.0 mph 6.0 mph 42% 0.00 in
15:09 77.3 °F 53.1 °F 30.06 in NW 4.0 mph 8.0 mph 43% 0.00 in
15:14 76.9 °F 53.3 °F 30.06 in NW 4.0 mph 9.0 mph 44% 0.00 in
15:19 76.9 °F 52.1 °F 30.06 in NNW 3.0 mph 7.0 mph 42% 0.00 in
15:24 77.0 °F 53.4 °F 30.06 in WSW 3.0 mph 8.0 mph 44% 0.00 in
15:29 76.6 °F 59.2 °F 30.06 in SW 10.0 mph 11.0 mph 55% 0.00 in
15:34 75.2 °F 57.4 °F 30.06 in West 6.0 mph 13.0 mph 54% 0.00 in
15:39 75.3 °F 59.0 °F 30.06 in SW 5.0 mph 13.0 mph 57% 0.00 in
15:44 75.0 °F 59.2 °F 30.06 in WSW 6.0 mph 13.0 mph 58% 0.00 in
15:49 75.1 °F 58.3 °F 30.06 in WSW 6.0 mph 12.0 mph 56% 0.00 in
15:54 75.2 °F 58.9 °F 30.06 in WSW 6.0 mph 12.0 mph 57% 0.00 in
15:59 74.4 °F 58.2 °F 30.06 in SW 16.0 mph 17.0 mph 57% 0.00 in
16:04 74.4 °F 59.6 °F 30.06 in SSW 2.0 mph 12.0 mph 60% 0.00 in
16:09 74.9 °F 58.6 °F 30.06 in West 8.0 mph 12.0 mph 57% 0.00 in
16:14 74.2 °F 58.5 °F 30.05 in SW 7.0 mph 14.0 mph 58% 0.00 in
16:19 74.3 °F 58.6 °F 30.06 in SW 7.0 mph 16.0 mph 58% 0.00 in
16:24 74.2 °F 58.9 °F 30.05 in SW 6.0 mph 16.0 mph 59% 0.00 in
16:29 74.2 °F 58.5 °F 30.05 in SW 7.0 mph 15.0 mph 58% 0.00 in
16:34 74.3 °F 59.0 °F 30.05 in SW 7.0 mph 15.0 mph 59% 0.00 in
16:39 74.4 °F 59.1 °F 30.05 in West 7.0 mph 15.0 mph 59% 0.00 in
16:44 74.3 °F 59.0 °F 30.05 in SW 6.0 mph 13.0 mph 59% 0.00 in
16:49 73.9 °F 58.7 °F 30.05 in SW 4.0 mph 11.0 mph 59% 0.00 in
16:54 74.0 °F 60.2 °F 30.05 in WNW 5.0 mph 13.0 mph 62% 0.00 in
16:59 74.3 °F 60.0 °F 30.05 in WSW 6.0 mph 9.0 mph 61% 0.00 in
17:04 74.1 °F 60.2 °F 30.05 in West 7.0 mph 11.0 mph 62% 0.00 in
17:09 73.9 °F 59.6 °F 30.05 in WSW 6.0 mph 15.0 mph 61% 0.00 in
17:14 73.2 °F 58.9 °F 30.05 in WSW 5.0 mph 13.0 mph 61% 0.00 in
17:19 73.5 °F 60.1 °F 30.05 in WSW 6.0 mph 13.0 mph 63% 0.00 in
17:24 73.3 °F 59.5 °F 30.05 in WSW 6.0 mph 13.0 mph 62% 0.00 in
17:29 73.7 °F 60.3 °F 30.05 in WSW 6.0 mph 13.0 mph 63% 0.00 in
17:34 73.0 °F 59.7 °F 30.05 in WSW 6.0 mph 13.0 mph 63% 0.00 in
17:39 73.0 °F 59.2 °F 30.05 in WSW 6.0 mph 13.0 mph 62% 0.00 in
17:44 72.7 °F 58.9 °F 30.05 in WSW 4.0 mph 14.0 mph 62% 0.00 in
17:49 72.6 °F 60.2 °F 30.05 in WSW 8.0 mph 11.0 mph 65% 0.00 in
17:54 72.4 °F 60.0 °F 30.05 in West 8.0 mph 12.0 mph 65% 0.00 in
17:59 72.4 °F 60.0 °F 30.05 in WSW 8.0 mph 13.0 mph 65% 0.00 in
18:04 72.2 °F 60.2 °F 30.05 in SW 8.0 mph 12.0 mph 66% 0.00 in
18:09 72.0 °F 60.9 °F 30.05 in WSW 12.0 mph 12.0 mph 68% 0.00 in
18:14 71.9 °F 60.8 °F 30.05 in SW 4.0 mph 13.0 mph 68% 0.00 in
18:19 72.0 °F 60.9 °F 30.05 in WSW 6.0 mph 13.0 mph 68% 0.00 in
18:24 72.0 °F 60.4 °F 30.05 in WSW 6.0 mph 11.0 mph 67% 0.00 in
18:29 71.6 °F 60.5 °F 30.05 in WSW 7.0 mph 14.0 mph 68% 0.00 in
18:34 71.3 °F 60.6 °F 30.05 in WSW 7.0 mph 14.0 mph 69% 0.00 in
18:39 71.3 °F 60.6 °F 30.05 in South 5.0 mph 15.0 mph 69% 0.00 in
18:44 71.3 °F 60.6 °F 30.05 in SW 3.0 mph 13.0 mph 69% 0.00 in
18:49 71.4 °F 60.3 °F 30.06 in SW 4.0 mph 10.0 mph 68% 0.00 in
18:54 71.1 °F 60.4 °F 30.06 in WSW 6.0 mph 13.0 mph 69% 0.00 in
18:59 71.0 °F 60.3 °F 30.06 in SW 5.0 mph 12.0 mph 69% 0.00 in
19:04 70.9 °F 60.6 °F 30.06 in WSW 8.0 mph 11.0 mph 70% 0.00 in
19:09 70.9 °F 60.6 °F 30.06 in SW 4.0 mph 11.0 mph 70% 0.00 in
19:14 70.9 °F 60.6 °F 30.06 in WSW 6.0 mph 9.0 mph 70% 0.00 in
19:19 70.6 °F 60.7 °F 30.06 in SSW 7.0 mph 12.0 mph 71% 0.00 in
19:24 70.6 °F 60.7 °F 30.06 in SW 6.0 mph 12.0 mph 71% 0.00 in
19:29 70.6 °F 60.7 °F 30.06 in WSW 6.0 mph 13.0 mph 71% 0.00 in
19:34 70.5 °F 60.6 °F 30.07 in WSW 6.0 mph 13.0 mph 71% 0.00 in
19:39 70.3 °F 60.8 °F 30.06 in West 5.0 mph 12.0 mph 72% 0.00 in
19:44 70.3 °F 60.4 °F 30.06 in SW 4.0 mph 10.0 mph 71% 0.00 in
19:49 70.1 °F 60.7 °F 30.06 in WSW 10.0 mph 12.0 mph 72% 0.00 in
19:54 70.1 °F 60.7 °F 30.06 in SW 6.0 mph 14.0 mph 72% 0.00 in
19:59 69.9 °F 60.5 °F 30.06 in WSW 7.0 mph 14.0 mph 72% 0.00 in
20:04 69.8 °F 60.8 °F 30.07 in WSW 6.0 mph 11.0 mph 73% 0.00 in
20:09 69.8 °F 60.8 °F 30.07 in WSW 5.0 mph 11.0 mph 73% 0.00 in
20:14 69.8 °F 60.8 °F 30.07 in SW 6.0 mph 12.0 mph 73% 0.00 in
20:19 69.7 °F 60.7 °F 30.07 in SW 11.0 mph 14.0 mph 73% 0.00 in
20:24 69.6 °F 60.9 °F 30.07 in WSW 6.0 mph 14.0 mph 74% 0.00 in
20:29 69.6 °F 60.9 °F 30.07 in WSW 4.0 mph 11.0 mph 74% 0.00 in
20:34 69.4 °F 60.8 °F 30.07 in SW 5.0 mph 10.0 mph 74% 0.00 in
20:39 69.5 °F 60.8 °F 30.07 in WSW 8.0 mph 10.0 mph 74% 0.00 in
20:44 69.5 °F 61.2 °F 30.07 in West 4.0 mph 12.0 mph 75% 0.00 in
20:49 69.4 °F 61.1 °F 30.07 in WSW 2.0 mph 10.0 mph 75% 0.00 in
20:54 69.4 °F 61.1 °F 30.07 in WSW 4.0 mph 10.0 mph 75% 0.00 in
20:59 69.3 °F 61.4 °F 30.08 in WSW 4.0 mph 11.0 mph 76% 0.00 in
21:04 69.3 °F 61.4 °F 30.08 in SW 4.0 mph 11.0 mph 76% 0.00 in
21:09 69.3 °F 61.4 °F 30.08 in SW 4.0 mph 14.0 mph 76% 0.00 in
21:14 69.2 °F 61.3 °F 30.08 in SW 4.0 mph 14.0 mph 76% 0.00 in
21:19 69.3 °F 61.4 °F 30.08 in SW 3.0 mph 7.0 mph 76% 0.00 in
21:24 69.3 °F 61.4 °F 30.08 in WSW 2.0 mph 10.0 mph 76% 0.00 in
21:29 69.4 °F 61.5 °F 30.08 in WSW 6.0 mph 10.0 mph 76% 0.00 in
21:34 69.5 °F 61.6 °F 30.08 in SW 3.0 mph 9.0 mph 76% 0.00 in
21:39 69.4 °F 61.5 °F 30.08 in SW 8.0 mph 11.0 mph 76% 0.00 in
21:44 69.4 °F 61.5 °F 30.08 in West 5.0 mph 16.0 mph 76% 0.00 in
21:49 69.5 °F 61.6 °F 30.09 in SW 3.0 mph 15.0 mph 76% 0.00 in
21:54 69.6 °F 62.1 °F 30.09 in West 7.0 mph 10.0 mph 77% 0.00 in
21:59 69.5 °F 62.0 °F 30.09 in SW 4.0 mph 14.0 mph 77% 0.00 in
22:04 69.5 °F 62.0 °F 30.09 in SW 5.0 mph 14.0 mph 77% 0.00 in
22:09 69.5 °F 62.3 °F 30.09 in SW 5.0 mph 10.0 mph 78% 0.00 in
22:14 69.5 °F 62.3 °F 30.09 in WSW 5.0 mph 12.0 mph 78% 0.00 in
22:19 69.6 °F 62.4 °F 30.09 in SW 5.0 mph 12.0 mph 78% 0.00 in
22:24 69.7 °F 62.9 °F 30.09 in SW 5.0 mph 11.0 mph 79% 0.00 in
22:29 69.6 °F 62.8 °F 30.09 in WSW 4.0 mph 10.0 mph 79% 0.00 in
22:34 69.7 °F 62.9 °F 30.09 in WSW 3.0 mph 12.0 mph 79% 0.00 in
22:39 69.7 °F 62.9 °F 30.09 in West 3.0 mph 11.0 mph 79% 0.00 in
22:44 69.7 °F 62.9 °F 30.09 in WSW 4.0 mph 10.0 mph 79% 0.00 in
22:49 69.7 °F 62.9 °F 30.09 in WSW 3.0 mph 13.0 mph 79% 0.00 in
22:54 69.7 °F 62.9 °F 30.10 in WSW 8.0 mph 10.0 mph 79% 0.00 in
22:59 69.7 °F 62.9 °F 30.10 in WSW 3.0 mph 9.0 mph 79% 0.00 in
23:04 69.7 °F 62.9 °F 30.10 in WSW 4.0 mph 9.0 mph 79% 0.00 in
23:09 69.6 °F 62.8 °F 30.10 in WSW 4.0 mph 9.0 mph 79% 0.00 in
23:15 69.5 °F 62.7 °F 30.10 in WSW 8.0 mph 8.0 mph 79% 0.00 in
23:24 69.5 °F 62.7 °F 30.10 in SW 5.0 mph 11.0 mph 79% 0.00 in
23:29 69.5 °F 62.7 °F 30.10 in West 4.0 mph 8.0 mph 79% 0.00 in
23:34 69.5 °F 63.1 °F 30.10 in SW 4.0 mph 7.0 mph 80% 0.00 in
23:39 69.4 °F 63.0 °F 30.10 in SW 6.0 mph 7.0 mph 80% 0.00 in
23:44 69.3 °F 62.9 °F 30.10 in WSW 2.0 mph 6.0 mph 80% 0.00 in
23:49 69.2 °F 63.1 °F 30.10 in SW 6.0 mph 7.0 mph 81% 0.00 in
23:54 69.3 °F 63.2 °F 30.10 in SSW 5.0 mph 9.0 mph 81% 0.00 in
23:59 69.3 °F 63.2 °F 30.10 in WSW 2.0 mph 7.0 mph 81% 0.00 in
Buffalo, New York, USA
Compliments of Weather Underground - 2.5 mb